sensor_id;sensor_type;location;lat;lon;timestamp;temperature;humidity
16491;DHT22;8356;51.214;3.270;2023-07-20T00:01:40;487.30;2380.80
16491;DHT22;8356;51.214;3.270;2023-07-20T00:04:10;487.30;2380.80
16491;DHT22;8356;51.214;3.270;2023-07-20T00:06:36;487.20;2380.80
16491;DHT22;8356;51.214;3.270;2023-07-20T00:09:06;487.20;2380.80
16491;DHT22;8356;51.214;3.270;2023-07-20T00:11:36;512.40;2380.80
16491;DHT22;8356;51.214;3.270;2023-07-20T00:14:02;487.20;2380.80
16491;DHT22;8356;51.214;3.270;2023-07-20T00:16:27;487.20;2380.80
16491;DHT22;8356;51.214;3.270;2023-07-20T00:18:53;487.10;2380.80
16491;DHT22;8356;51.214;3.270;2023-07-20T00:21:18;487.00;2380.80
16491;DHT22;8356;51.214;3.270;2023-07-20T00:23:45;487.10;2380.80
16491;DHT22;8356;51.214;3.270;2023-07-20T00:26:11;487.30;2380.80
16491;DHT22;8356;51.214;3.270;2023-07-20T00:28:36;512.00;2380.80
16491;DHT22;8356;51.214;3.270;2023-07-20T00:31:02;512.10;2380.80
16491;DHT22;8356;51.214;3.270;2023-07-20T00:33:28;512.10;2380.80
16491;DHT22;8356;51.214;3.270;2023-07-20T00:35:54;512.10;2380.80
16491;DHT22;8356;51.214;3.270;2023-07-20T00:38:19;512.20;2380.80
16491;DHT22;8356;51.214;3.270;2023-07-20T00:40:46;512.10;2380.80
16491;DHT22;8356;51.214;3.270;2023-07-20T00:43:11;487.30;2380.80
16491;DHT22;8356;51.214;3.270;2023-07-20T00:45:38;487.10;2380.80
16491;DHT22;8356;51.214;3.270;2023-07-20T00:48:04;487.00;2380.80
16491;DHT22;8356;51.214;3.270;2023-07-20T00:50:31;486.80;2380.80
16491;DHT22;8356;51.214;3.270;2023-07-20T00:52:57;486.80;2380.80
16491;DHT22;8356;51.214;3.270;2023-07-20T00:55:26;486.90;2380.80
16491;DHT22;8356;51.214;3.270;2023-07-20T00:57:53;487.00;2380.80
16491;DHT22;8356;51.214;3.270;2023-07-20T01:00:19;487.10;2380.80
16491;DHT22;8356;51.214;3.270;2023-07-20T01:02:45;487.20;2380.80
16491;DHT22;8356;51.214;3.270;2023-07-20T01:05:12;512.10;2380.80
16491;DHT22;8356;51.214;3.270;2023-07-20T01:07:50;487.10;2380.80
16491;DHT22;8356;51.214;3.270;2023-07-20T01:13:03;487.10;2380.80
16491;DHT22;8356;51.214;3.270;2023-07-20T01:15:33;487.20;2380.80
16491;DHT22;8356;51.214;3.270;2023-07-20T01:17:59;487.20;2380.80
16491;DHT22;8356;51.214;3.270;2023-07-20T01:20:27;487.00;2380.80
16491;DHT22;8356;51.214;3.270;2023-07-20T01:26:22;486.90;2380.80
16491;DHT22;8356;51.214;3.270;2023-07-20T01:31:28;487.30;2380.80
16491;DHT22;8356;51.214;3.270;2023-07-20T01:33:57;487.20;2380.80
16491;DHT22;8356;51.214;3.270;2023-07-20T01:36:25;487.20;2380.80
16491;DHT22;8356;51.214;3.270;2023-07-20T01:38:52;487.10;2380.80
16491;DHT22;8356;51.214;3.270;2023-07-20T01:41:19;486.90;2380.80
16491;DHT22;8356;51.214;3.270;2023-07-20T01:43:44;487.00;2380.80
16491;DHT22;8356;51.214;3.270;2023-07-20T01:46:10;487.20;2380.80
16491;DHT22;8356;51.214;3.270;2023-07-20T01:48:36;487.20;2380.80
16491;DHT22;8356;51.214;3.270;2023-07-20T01:51:01;487.20;2380.80
16491;DHT22;8356;51.214;3.270;2023-07-20T01:53:27;487.20;2380.80
16491;DHT22;8356;51.214;3.270;2023-07-20T01:55:53;487.30;2380.80
16491;DHT22;8356;51.214;3.270;2023-07-20T01:58:19;487.30;2380.80
16491;DHT22;8356;51.214;3.270;2023-07-20T02:00:45;487.20;2380.80
16491;DHT22;8356;51.214;3.270;2023-07-20T02:03:11;487.20;2380.80
16491;DHT22;8356;51.214;3.270;2023-07-20T02:05:37;487.30;2380.80
16491;DHT22;8356;51.214;3.270;2023-07-20T02:08:03;487.20;2380.80
16491;DHT22;8356;51.214;3.270;2023-07-20T02:10:29;487.20;2380.80
16491;DHT22;8356;51.214;3.270;2023-07-20T02:12:54;487.00;2380.80
16491;DHT22;8356;51.214;3.270;2023-07-20T02:15:20;487.00;2380.80
16491;DHT22;8356;51.214;3.270;2023-07-20T02:17:46;487.00;2380.80
16491;DHT22;8356;51.214;3.270;2023-07-20T02:20:12;486.90;2380.80
16491;DHT22;8356;51.214;3.270;2023-07-20T02:22:38;486.80;2380.80
16491;DHT22;8356;51.214;3.270;2023-07-20T02:25:07;486.80;2380.80
16491;DHT22;8356;51.214;3.270;2023-07-20T02:27:34;487.00;2380.80
16491;DHT22;8356;51.214;3.270;2023-07-20T02:29:59;487.20;2380.80
16491;DHT22;8356;51.214;3.270;2023-07-20T02:32:25;487.30;2380.80
16491;DHT22;8356;51.214;3.270;2023-07-20T02:34:51;487.30;2380.80
16491;DHT22;8356;51.214;3.270;2023-07-20T02:37:17;487.20;2380.80
16491;DHT22;8356;51.214;3.270;2023-07-20T02:39:43;487.00;2380.80
16491;DHT22;8356;51.214;3.270;2023-07-20T02:42:08;486.80;2380.80
16491;DHT22;8356;51.214;3.270;2023-07-20T02:44:34;486.80;2380.80
16491;DHT22;8356;51.214;3.270;2023-07-20T02:47:00;486.70;2380.80
16491;DHT22;8356;51.214;3.270;2023-07-20T02:49:26;486.80;2380.80
16491;DHT22;8356;51.214;3.270;2023-07-20T02:51:52;486.80;2380.80
16491;DHT22;8356;51.214;3.270;2023-07-20T02:54:17;487.00;2380.80
16491;DHT22;8356;51.214;3.270;2023-07-20T02:56:43;487.20;2380.80
16491;DHT22;8356;51.214;3.270;2023-07-20T02:59:09;487.30;2380.80
16491;DHT22;8356;51.214;3.270;2023-07-20T03:01:35;512.00;2380.80
16491;DHT22;8356;51.214;3.270;2023-07-20T03:04:01;512.00;2380.80
16491;DHT22;8356;51.214;3.270;2023-07-20T03:06:27;512.00;2380.80
16491;DHT22;8356;51.214;3.270;2023-07-20T03:08:53;487.20;2380.80
16491;DHT22;8356;51.214;3.270;2023-07-20T03:11:20;487.00;2380.80
16491;DHT22;8356;51.214;3.270;2023-07-20T03:13:46;486.80;2380.80
16491;DHT22;8356;51.214;3.270;2023-07-20T03:16:18;486.70;2380.80
16491;DHT22;8356;51.214;3.270;2023-07-20T03:18:44;486.60;2380.80
16491;DHT22;8356;51.214;3.270;2023-07-20T03:21:10;486.50;2380.80
16491;DHT22;8356;51.214;3.270;2023-07-20T03:23:40;486.60;2380.80
16491;DHT22;8356;51.214;3.270;2023-07-20T03:26:06;487.00;2380.80
16491;DHT22;8356;51.214;3.270;2023-07-20T03:28:34;486.80;2380.80
16491;DHT22;8356;51.214;3.270;2023-07-20T03:31:00;487.00;2380.80
16491;DHT22;8356;51.214;3.270;2023-07-20T03:33:27;487.10;2380.80
16491;DHT22;8356;51.214;3.270;2023-07-20T03:35:53;487.20;2380.80
16491;DHT22;8356;51.214;3.270;2023-07-20T03:38:20;487.30;2380.80
16491;DHT22;8356;51.214;3.270;2023-07-20T03:40:56;487.10;2380.80
16491;DHT22;8356;51.214;3.270;2023-07-20T03:43:26;486.90;2380.80
16491;DHT22;8356;51.214;3.270;2023-07-20T03:45:53;486.80;2380.80
16491;DHT22;8356;51.214;3.270;2023-07-20T03:48:23;487.00;2380.80
16491;DHT22;8356;51.214;3.270;2023-07-20T03:50:50;487.00;2380.80
16491;DHT22;8356;51.214;3.270;2023-07-20T03:53:17;487.00;2380.80
16491;DHT22;8356;51.214;3.270;2023-07-20T03:55:49;487.10;2380.80
16491;DHT22;8356;51.214;3.270;2023-07-20T03:58:16;487.10;2380.80
16491;DHT22;8356;51.214;3.270;2023-07-20T04:00:51;487.10;2380.80
16491;DHT22;8356;51.214;3.270;2023-07-20T04:03:18;487.30;2380.80
16491;DHT22;8356;51.214;3.270;2023-07-20T04:05:44;487.30;2380.80
16491;DHT22;8356;51.214;3.270;2023-07-20T04:08:10;487.10;2380.80
16491;DHT22;8356;51.214;3.270;2023-07-20T04:10:42;486.90;2380.80
16491;DHT22;8356;51.214;3.270;2023-07-20T04:13:08;486.80;2380.80
16491;DHT22;8356;51.214;3.270;2023-07-20T04:15:34;487.00;2380.80
16491;DHT22;8356;51.214;3.270;2023-07-20T04:17:59;487.20;2380.80
16491;DHT22;8356;51.214;3.270;2023-07-20T04:20:26;487.30;2380.80
16491;DHT22;8356;51.214;3.270;2023-07-20T04:22:52;487.30;2380.80
16491;DHT22;8356;51.214;3.270;2023-07-20T04:25:18;487.30;2380.80
16491;DHT22;8356;51.214;3.270;2023-07-20T04:27:44;487.10;2380.80
16491;DHT22;8356;51.214;3.270;2023-07-20T04:30:10;486.90;2380.80
16491;DHT22;8356;51.214;3.270;2023-07-20T04:32:37;486.80;2380.80
16491;DHT22;8356;51.214;3.270;2023-07-20T04:35:06;486.70;2380.80
16491;DHT22;8356;51.214;3.270;2023-07-20T04:37:35;486.60;2380.80
16491;DHT22;8356;51.214;3.270;2023-07-20T04:40:01;486.60;2380.80
16491;DHT22;8356;51.214;3.270;2023-07-20T04:42:26;486.70;2380.80
16491;DHT22;8356;51.214;3.270;2023-07-20T04:44:52;486.80;2380.80
16491;DHT22;8356;51.214;3.270;2023-07-20T04:47:17;487.00;2380.80
16491;DHT22;8356;51.214;3.270;2023-07-20T04:49:43;487.10;2380.80
16491;DHT22;8356;51.214;3.270;2023-07-20T04:52:09;487.30;2380.80
16491;DHT22;8356;51.214;3.270;2023-07-20T04:54:34;487.20;2380.80
16491;DHT22;8356;51.214;3.270;2023-07-20T04:57:00;487.30;2380.80
16491;DHT22;8356;51.214;3.270;2023-07-20T04:59:25;487.30;2380.80
16491;DHT22;8356;51.214;3.270;2023-07-20T05:01:51;487.30;2380.80
16491;DHT22;8356;51.214;3.270;2023-07-20T05:04:17;487.20;2380.80
16491;DHT22;8356;51.214;3.270;2023-07-20T05:06:42;487.10;2380.80
16491;DHT22;8356;51.214;3.270;2023-07-20T05:09:09;487.00;2380.80
16491;DHT22;8356;51.214;3.270;2023-07-20T05:11:34;487.00;2380.80
16491;DHT22;8356;51.214;3.270;2023-07-20T05:14:00;487.00;2380.80
16491;DHT22;8356;51.214;3.270;2023-07-20T05:16:26;487.00;2380.80
16491;DHT22;8356;51.214;3.270;2023-07-20T05:18:51;487.00;2380.80
16491;DHT22;8356;51.214;3.270;2023-07-20T05:21:17;487.00;2380.80
16491;DHT22;8356;51.214;3.270;2023-07-20T05:23:43;487.10;2380.80
16491;DHT22;8356;51.214;3.270;2023-07-20T05:26:08;486.80;2380.80
16491;DHT22;8356;51.214;3.270;2023-07-20T05:28:34;486.80;2380.80
16491;DHT22;8356;51.214;3.270;2023-07-20T05:31:02;486.80;2380.80
16491;DHT22;8356;51.214;3.270;2023-07-20T05:33:28;486.80;2380.80
16491;DHT22;8356;51.214;3.270;2023-07-20T05:35:54;486.80;2380.80
16491;DHT22;8356;51.214;3.270;2023-07-20T05:38:19;487.00;2380.80
16491;DHT22;8356;51.214;3.270;2023-07-20T05:40:45;487.00;2380.80
16491;DHT22;8356;51.214;3.270;2023-07-20T05:43:12;487.10;2380.80
16491;DHT22;8356;51.214;3.270;2023-07-20T05:45:41;487.10;2380.80
16491;DHT22;8356;51.214;3.270;2023-07-20T05:48:08;486.80;2380.80
16491;DHT22;8356;51.214;3.270;2023-07-20T05:50:37;487.10;2380.80
16491;DHT22;8356;51.214;3.270;2023-07-20T05:53:03;487.10;2380.80
16491;DHT22;8356;51.214;3.270;2023-07-20T05:55:28;487.10;2380.80
16491;DHT22;8356;51.214;3.270;2023-07-20T05:57:54;487.30;2380.80
16491;DHT22;8356;51.214;3.270;2023-07-20T06:00:21;512.00;2380.80
16491;DHT22;8356;51.214;3.270;2023-07-20T06:02:52;512.10;2380.80
16491;DHT22;8356;51.214;3.270;2023-07-20T06:05:18;512.10;2380.80
16491;DHT22;8356;51.214;3.270;2023-07-20T06:07:45;512.10;2380.80
16491;DHT22;8356;51.214;3.270;2023-07-20T06:10:11;512.10;2380.80
16491;DHT22;8356;51.214;3.270;2023-07-20T06:12:36;512.00;2380.80
16491;DHT22;8356;51.214;3.270;2023-07-20T06:15:03;512.00;2380.80
16491;DHT22;8356;51.214;3.270;2023-07-20T06:17:29;512.10;2380.80
16491;DHT22;8356;51.214;3.270;2023-07-20T06:19:55;512.10;2380.80
16491;DHT22;8356;51.214;3.270;2023-07-20T06:22:20;512.20;2380.80
16491;DHT22;8356;51.214;3.270;2023-07-20T06:24:46;512.20;2380.80
16491;DHT22;8356;51.214;3.270;2023-07-20T06:27:11;512.20;2380.80
16491;DHT22;8356;51.214;3.270;2023-07-20T06:29:38;512.30;2380.80
16491;DHT22;8356;51.214;3.270;2023-07-20T06:32:04;512.40;2380.80
16491;DHT22;8356;51.214;3.270;2023-07-20T06:34:30;512.50;2380.80
16491;DHT22;8356;51.214;3.270;2023-07-20T06:36:56;512.60;2380.80
16491;DHT22;8356;51.214;3.270;2023-07-20T06:39:22;512.70;2380.80
16491;DHT22;8356;51.214;3.270;2023-07-20T06:41:48;512.80;2380.80
16491;DHT22;8356;51.214;3.270;2023-07-20T06:44:13;512.90;2380.80
16491;DHT22;8356;51.214;3.270;2023-07-20T06:46:39;512.90;2380.80
16491;DHT22;8356;51.214;3.270;2023-07-20T06:49:06;512.80;2380.80
16491;DHT22;8356;51.214;3.270;2023-07-20T06:51:33;512.80;2380.80
16491;DHT22;8356;51.214;3.270;2023-07-20T06:53:59;537.60;2406.40
16491;DHT22;8356;51.214;3.270;2023-07-20T06:56:24;537.70;2406.40
16491;DHT22;8356;51.214;3.270;2023-07-20T06:58:50;537.70;2406.40
16491;DHT22;8356;51.214;3.270;2023-07-20T07:01:15;537.80;2406.40
16491;DHT22;8356;51.214;3.270;2023-07-20T07:03:42;537.80;2406.40
16491;DHT22;8356;51.214;3.270;2023-07-20T07:06:09;537.80;2406.40
16491;DHT22;8356;51.214;3.270;2023-07-20T07:08:35;537.90;2406.40
16491;DHT22;8356;51.214;3.270;2023-07-20T07:11:01;538.10;2406.40
16491;DHT22;8356;51.214;3.270;2023-07-20T07:13:27;538.30;2406.40
16491;DHT22;8356;51.214;3.270;2023-07-20T07:15:53;538.30;2406.40
16491;DHT22;8356;51.214;3.270;2023-07-20T07:18:18;538.40;2406.40
16491;DHT22;8356;51.214;3.270;2023-07-20T07:20:51;538.40;2406.40
16491;DHT22;8356;51.214;3.270;2023-07-20T07:23:17;538.30;2406.40
16491;DHT22;8356;51.214;3.270;2023-07-20T07:25:43;538.20;2406.40
16491;DHT22;8356;51.214;3.270;2023-07-20T07:28:09;538.20;2406.40
16491;DHT22;8356;51.214;3.270;2023-07-20T07:30:34;538.30;2406.40
16491;DHT22;8356;51.214;3.270;2023-07-20T07:33:00;538.30;2406.40
16491;DHT22;8356;51.214;3.270;2023-07-20T07:35:25;538.50;2406.40
16491;DHT22;8356;51.214;3.270;2023-07-20T07:37:51;538.50;2406.40
16491;DHT22;8356;51.214;3.270;2023-07-20T07:40:16;563.20;2432.00
16491;DHT22;8356;51.214;3.270;2023-07-20T07:42:42;563.20;2432.00
16491;DHT22;8356;51.214;3.270;2023-07-20T07:45:08;563.20;2432.00
16491;DHT22;8356;51.214;3.270;2023-07-20T07:47:34;563.30;2432.00
16491;DHT22;8356;51.214;3.270;2023-07-20T07:49:59;563.40;2432.00
16491;DHT22;8356;51.214;3.270;2023-07-20T07:52:25;563.40;2432.00
16491;DHT22;8356;51.214;3.270;2023-07-20T07:54:51;563.40;2432.00
16491;DHT22;8356;51.214;3.270;2023-07-20T07:57:16;563.40;2432.00
16491;DHT22;8356;51.214;3.270;2023-07-20T07:59:42;563.40;2432.00
16491;DHT22;8356;51.214;3.270;2023-07-20T08:02:07;563.40;2432.00
16491;DHT22;8356;51.214;3.270;2023-07-20T08:04:33;563.40;2432.00
16491;DHT22;8356;51.214;3.270;2023-07-20T08:06:59;563.50;2432.00
16491;DHT22;8356;51.214;3.270;2023-07-20T08:09:25;563.60;2432.00
16491;DHT22;8356;51.214;3.270;2023-07-20T08:11:51;563.70;2432.00
16491;DHT22;8356;51.214;3.270;2023-07-20T08:14:16;563.80;2432.00
16491;DHT22;8356;51.214;3.270;2023-07-20T08:16:42;563.80;2432.00
16491;DHT22;8356;51.214;3.270;2023-07-20T08:19:08;563.70;2432.00
16491;DHT22;8356;51.214;3.270;2023-07-20T08:21:34;563.80;2432.00
16491;DHT22;8356;51.214;3.270;2023-07-20T08:23:59;563.90;2432.00
16491;DHT22;8356;51.214;3.270;2023-07-20T08:26:25;564.10;2432.00
16491;DHT22;8356;51.214;3.270;2023-07-20T08:28:51;588.90;2432.00
16491;DHT22;8356;51.214;3.270;2023-07-20T08:31:16;589.10;2432.00
16491;DHT22;8356;51.214;3.270;2023-07-20T08:33:42;589.20;2432.00
16491;DHT22;8356;51.214;3.270;2023-07-20T08:36:08;589.20;2432.00
16491;DHT22;8356;51.214;3.270;2023-07-20T08:38:34;589.20;2432.00
16491;DHT22;8356;51.214;3.270;2023-07-20T08:41:00;589.10;2432.00
16491;DHT22;8356;51.214;3.270;2023-07-20T08:43:27;589.00;2432.00
16491;DHT22;8356;51.214;3.270;2023-07-20T08:45:57;588.90;2432.00
16491;DHT22;8356;51.214;3.270;2023-07-20T08:48:22;564.10;2432.00
16491;DHT22;8356;51.214;3.270;2023-07-20T08:50:52;588.80;2432.00
16491;DHT22;8356;51.214;3.270;2023-07-20T08:53:21;588.90;2432.00
16491;DHT22;8356;51.214;3.270;2023-07-20T08:55:50;589.00;2432.00
16491;DHT22;8356;51.214;3.270;2023-07-20T08:58:16;589.00;2432.00
16491;DHT22;8356;51.214;3.270;2023-07-20T09:00:43;589.00;2432.00
16491;DHT22;8356;51.214;3.270;2023-07-20T09:03:10;588.90;2432.00
16491;DHT22;8356;51.214;3.270;2023-07-20T09:05:36;588.90;2432.00
16491;DHT22;8356;51.214;3.270;2023-07-20T09:08:02;588.90;2432.00
16491;DHT22;8356;51.214;3.270;2023-07-20T09:10:30;589.10;2432.00
16491;DHT22;8356;51.214;3.270;2023-07-20T09:12:56;589.20;2432.00
16491;DHT22;8356;51.214;3.270;2023-07-20T09:15:22;589.10;2432.00
16491;DHT22;8356;51.214;3.270;2023-07-20T09:17:51;588.90;2432.00
16491;DHT22;8356;51.214;3.270;2023-07-20T09:20:19;588.80;2432.00
16491;DHT22;8356;51.214;3.270;2023-07-20T09:22:46;564.10;2432.00
16491;DHT22;8356;51.214;3.270;2023-07-20T09:25:12;564.00;2432.00
16491;DHT22;8356;51.214;3.270;2023-07-20T09:27:46;564.00;2432.00
16491;DHT22;8356;51.214;3.270;2023-07-20T09:30:14;563.90;2432.00
16491;DHT22;8356;51.214;3.270;2023-07-20T09:32:44;563.90;2432.00
16491;DHT22;8356;51.214;3.270;2023-07-20T09:35:16;563.90;2432.00
16491;DHT22;8356;51.214;3.270;2023-07-20T09:37:58;563.90;2432.00
16491;DHT22;8356;51.214;3.270;2023-07-20T09:40:25;563.80;2432.00
16491;DHT22;8356;51.214;3.270;2023-07-20T09:42:53;563.90;2432.00
16491;DHT22;8356;51.214;3.270;2023-07-20T09:45:49;563.90;2432.00
16491;DHT22;8356;51.214;3.270;2023-07-20T09:48:13;564.00;2432.00
16491;DHT22;8356;51.214;3.270;2023-07-20T09:50:40;564.10;2432.00
16491;DHT22;8356;51.214;3.270;2023-07-20T09:53:09;564.10;2432.00
16491;DHT22;8356;51.214;3.270;2023-07-20T09:55:37;589.00;2432.00
16491;DHT22;8356;51.214;3.270;2023-07-20T09:58:04;589.30;2432.00
16491;DHT22;8356;51.214;3.270;2023-07-20T10:00:32;589.50;2432.00
16491;DHT22;8356;51.214;3.270;2023-07-20T10:03:02;589.40;2432.00
16491;DHT22;8356;51.214;3.270;2023-07-20T10:05:33;589.60;2432.00
16491;DHT22;8356;51.214;3.270;2023-07-20T10:08:02;614.60;2432.00
16491;DHT22;8356;51.214;3.270;2023-07-20T10:10:28;614.80;2432.00
16491;DHT22;8356;51.214;3.270;2023-07-20T10:12:57;614.70;2432.00
16491;DHT22;8356;51.214;3.270;2023-07-20T10:15:33;614.60;2432.00
16491;DHT22;8356;51.214;3.270;2023-07-20T10:18:07;614.40;2432.00
16491;DHT22;8356;51.214;3.270;2023-07-20T10:20:36;589.40;2432.00
16491;DHT22;8356;51.214;3.270;2023-07-20T10:23:04;589.40;2432.00
16491;DHT22;8356;51.214;3.270;2023-07-20T10:25:31;589.40;2432.00
16491;DHT22;8356;51.214;3.270;2023-07-20T10:27:58;589.30;2432.00
16491;DHT22;8356;51.214;3.270;2023-07-20T10:30:24;589.20;2432.00
16491;DHT22;8356;51.214;3.270;2023-07-20T10:32:51;589.20;2432.00
16491;DHT22;8356;51.214;3.270;2023-07-20T10:35:18;589.20;2432.00
16491;DHT22;8356;51.214;3.270;2023-07-20T10:37:50;589.20;2432.00
16491;DHT22;8356;51.214;3.270;2023-07-20T10:40:26;589.40;2432.00
16491;DHT22;8356;51.214;3.270;2023-07-20T10:43:03;589.50;2432.00
16491;DHT22;8356;51.214;3.270;2023-07-20T10:48:14;589.60;2432.00
16491;DHT22;8356;51.214;3.270;2023-07-20T10:50:41;589.70;2432.00
16491;DHT22;8356;51.214;3.270;2023-07-20T10:53:18;615.00;2432.00
16491;DHT22;8356;51.214;3.270;2023-07-20T10:55:44;615.20;2432.00
16491;DHT22;8356;51.214;3.270;2023-07-20T10:58:13;615.30;2432.00
16491;DHT22;8356;51.214;3.270;2023-07-20T11:01:01;640.50;2432.00
16491;DHT22;8356;51.214;3.270;2023-07-20T11:03:36;665.70;2432.00
16491;DHT22;8356;51.214;3.270;2023-07-20T11:11:27;640.20;2432.00
16491;DHT22;8356;51.214;3.270;2023-07-20T11:13:57;615.20;2432.00
16491;DHT22;8356;51.214;3.270;2023-07-20T11:16:43;615.10;2432.00
16491;DHT22;8356;51.214;3.270;2023-07-20T11:19:23;614.90;2432.00
16491;DHT22;8356;51.214;3.270;2023-07-20T11:21:53;614.70;2432.00
16491;DHT22;8356;51.214;3.270;2023-07-20T11:24:19;614.60;2432.00
16491;DHT22;8356;51.214;3.270;2023-07-20T11:26:50;614.60;2432.00
16491;DHT22;8356;51.214;3.270;2023-07-20T11:29:17;614.50;2432.00
16491;DHT22;8356;51.214;3.270;2023-07-20T11:31:44;589.60;2432.00
16491;DHT22;8356;51.214;3.270;2023-07-20T11:34:15;589.50;2432.00
16491;DHT22;8356;51.214;3.270;2023-07-20T11:36:42;563.40;2432.00
16491;DHT22;8356;51.214;3.270;2023-07-20T11:39:12;589.60;2432.00
16491;DHT22;8356;51.214;3.270;2023-07-20T11:41:38;589.50;2432.00
16491;DHT22;8356;51.214;3.270;2023-07-20T11:44:06;589.30;2432.00
16491;DHT22;8356;51.214;3.270;2023-07-20T11:46:33;589.20;2432.00
16491;DHT22;8356;51.214;3.270;2023-07-20T11:49:00;589.20;2432.00
16491;DHT22;8356;51.214;3.270;2023-07-20T11:51:30;564.10;2432.00
16491;DHT22;8356;51.214;3.270;2023-07-20T11:53:57;563.90;2432.00
16491;DHT22;8356;51.214;3.270;2023-07-20T11:56:26;563.70;2432.00
16491;DHT22;8356;51.214;3.270;2023-07-20T11:58:55;563.40;2432.00
16491;DHT22;8356;51.214;3.270;2023-07-20T12:01:25;563.50;2432.00
16491;DHT22;8356;51.214;3.270;2023-07-20T12:03:55;563.40;2432.00
16491;DHT22;8356;51.214;3.270;2023-07-20T12:06:26;538.50;2406.40
16491;DHT22;8356;51.214;3.270;2023-07-20T12:08:55;538.30;2406.40
16491;DHT22;8356;51.214;3.270;2023-07-20T12:11:39;538.10;2406.40
16491;DHT22;8356;51.214;3.270;2023-07-20T12:14:09;537.90;2406.40
16491;DHT22;8356;51.214;3.270;2023-07-20T12:16:36;537.90;2406.40
16491;DHT22;8356;51.214;3.270;2023-07-20T12:19:11;537.80;2406.40
16491;DHT22;8356;51.214;3.270;2023-07-20T12:21:39;537.70;2406.40
16491;DHT22;8356;51.214;3.270;2023-07-20T12:24:06;512.90;2380.80
16491;DHT22;8356;51.214;3.270;2023-07-20T12:26:34;537.70;2406.40
16491;DHT22;8356;51.214;3.270;2023-07-20T12:29:00;537.60;2406.40
16491;DHT22;8356;51.214;3.270;2023-07-20T12:31:27;537.60;2406.40
16491;DHT22;8356;51.214;3.270;2023-07-20T12:33:55;512.80;2380.80
16491;DHT22;8356;51.214;3.270;2023-07-20T12:36:21;512.90;2380.80
16491;DHT22;8356;51.214;3.270;2023-07-20T12:38:47;537.60;2406.40
16491;DHT22;8356;51.214;3.270;2023-07-20T12:41:13;537.70;2406.40
16491;DHT22;8356;51.214;3.270;2023-07-20T12:43:43;538.00;2406.40
16491;DHT22;8356;51.214;3.270;2023-07-20T12:46:10;538.20;2406.40
16491;DHT22;8356;51.214;3.270;2023-07-20T12:48:37;538.30;2406.40
16491;DHT22;8356;51.214;3.270;2023-07-20T12:51:03;538.20;2406.40
16491;DHT22;8356;51.214;3.270;2023-07-20T12:53:30;538.30;2406.40
16491;DHT22;8356;51.214;3.270;2023-07-20T12:55:56;538.40;2406.40
16491;DHT22;8356;51.214;3.270;2023-07-20T12:58:22;538.50;2406.40
16491;DHT22;8356;51.214;3.270;2023-07-20T13:00:49;563.20;2432.00
16491;DHT22;8356;51.214;3.270;2023-07-20T13:03:14;538.50;2406.40
16491;DHT22;8356;51.214;3.270;2023-07-20T13:05:41;563.20;2432.00
16491;DHT22;8356;51.214;3.270;2023-07-20T13:08:07;563.20;2432.00
16491;DHT22;8356;51.214;3.270;2023-07-20T13:10:33;563.30;2432.00
16491;DHT22;8356;51.214;3.270;2023-07-20T13:12:59;563.20;2432.00
16491;DHT22;8356;51.214;3.270;2023-07-20T13:15:30;563.50;2432.00
16491;DHT22;8356;51.214;3.270;2023-07-20T13:17:59;538.50;2406.40
16491;DHT22;8356;51.214;3.270;2023-07-20T13:20:25;563.20;2432.00
16491;DHT22;8356;51.214;3.270;2023-07-20T13:22:51;563.20;2432.00
16491;DHT22;8356;51.214;3.270;2023-07-20T13:25:17;563.30;2432.00
16491;DHT22;8356;51.214;3.270;2023-07-20T13:27:43;563.20;2432.00
16491;DHT22;8356;51.214;3.270;2023-07-20T13:30:09;563.20;2432.00
16491;DHT22;8356;51.214;3.270;2023-07-20T13:32:39;563.30;2432.00
16491;DHT22;8356;51.214;3.270;2023-07-20T13:35:05;563.40;2432.00
16491;DHT22;8356;51.214;3.270;2023-07-20T13:37:31;563.20;2432.00
16491;DHT22;8356;51.214;3.270;2023-07-20T13:39:57;538.50;2406.40
16491;DHT22;8356;51.214;3.270;2023-07-20T13:42:22;538.50;2406.40
16491;DHT22;8356;51.214;3.270;2023-07-20T13:44:48;538.30;2406.40
16491;DHT22;8356;51.214;3.270;2023-07-20T13:47:14;538.30;2406.40
16491;DHT22;8356;51.214;3.270;2023-07-20T13:49:40;538.50;2406.40
16491;DHT22;8356;51.214;3.270;2023-07-20T13:52:06;563.20;2432.00
16491;DHT22;8356;51.214;3.270;2023-07-20T13:54:32;563.20;2432.00
16491;DHT22;8356;51.214;3.270;2023-07-20T13:56:57;563.20;2432.00
16491;DHT22;8356;51.214;3.270;2023-07-20T13:59:23;563.40;2432.00
16491;DHT22;8356;51.214;3.270;2023-07-20T14:01:49;563.40;2432.00
16491;DHT22;8356;51.214;3.270;2023-07-20T14:04:15;563.20;2432.00
16491;DHT22;8356;51.214;3.270;2023-07-20T14:06:40;563.50;2432.00
16491;DHT22;8356;51.214;3.270;2023-07-20T14:09:06;563.40;2432.00
16491;DHT22;8356;51.214;3.270;2023-07-20T14:11:32;563.40;2432.00
16491;DHT22;8356;51.214;3.270;2023-07-20T14:13:58;563.40;2432.00
16491;DHT22;8356;51.214;3.270;2023-07-20T14:16:24;563.40;2432.00
16491;DHT22;8356;51.214;3.270;2023-07-20T14:18:50;563.40;2432.00
16491;DHT22;8356;51.214;3.270;2023-07-20T14:21:17;563.40;2432.00
16491;DHT22;8356;51.214;3.270;2023-07-20T14:23:48;563.30;2432.00
16491;DHT22;8356;51.214;3.270;2023-07-20T14:26:14;563.20;2432.00
16491;DHT22;8356;51.214;3.270;2023-07-20T14:28:40;563.20;2432.00
16491;DHT22;8356;51.214;3.270;2023-07-20T14:31:05;563.20;2432.00
16491;DHT22;8356;51.214;3.270;2023-07-20T14:33:32;563.40;2432.00
16491;DHT22;8356;51.214;3.270;2023-07-20T14:35:57;563.50;2432.00
16491;DHT22;8356;51.214;3.270;2023-07-20T14:38:23;563.60;2432.00
16491;DHT22;8356;51.214;3.270;2023-07-20T14:40:49;563.60;2432.00
16491;DHT22;8356;51.214;3.270;2023-07-20T14:43:14;563.70;2432.00
16491;DHT22;8356;51.214;3.270;2023-07-20T14:45:41;563.60;2432.00
16491;DHT22;8356;51.214;3.270;2023-07-20T14:48:07;563.70;2432.00
16491;DHT22;8356;51.214;3.270;2023-07-20T14:50:33;563.60;2432.00
16491;DHT22;8356;51.214;3.270;2023-07-20T14:52:58;563.50;2432.00
16491;DHT22;8356;51.214;3.270;2023-07-20T14:55:25;563.40;2432.00
16491;DHT22;8356;51.214;3.270;2023-07-20T14:57:50;563.50;2432.00
16491;DHT22;8356;51.214;3.270;2023-07-20T15:00:16;563.80;2432.00
16491;DHT22;8356;51.214;3.270;2023-07-20T15:02:42;564.00;2432.00
16491;DHT22;8356;51.214;3.270;2023-07-20T15:05:09;564.00;2432.00
16491;DHT22;8356;51.214;3.270;2023-07-20T15:07:36;588.80;2432.00
16491;DHT22;8356;51.214;3.270;2023-07-20T15:10:02;588.90;2432.00
16491;DHT22;8356;51.214;3.270;2023-07-20T15:12:29;588.90;2432.00
16491;DHT22;8356;51.214;3.270;2023-07-20T15:15:07;588.80;2432.00
16491;DHT22;8356;51.214;3.270;2023-07-20T15:17:34;564.00;2432.00
16491;DHT22;8356;51.214;3.270;2023-07-20T15:20:01;564.00;2432.00